sensor_id;sensor_type;location;lat;lon;timestamp;pressure;altitude;pressure_sealevel;temperature;humidity
57990;BME280;58373;51.824;5.564;2024-01-30T00:01:10;102569.00;;;6.82;100.00
57990;BME280;58373;51.824;5.564;2024-01-30T00:03:36;102570.81;;;6.80;100.00
57990;BME280;58373;51.824;5.564;2024-01-30T00:06:02;102567.41;;;6.80;100.00
57990;BME280;58373;51.824;5.564;2024-01-30T00:08:28;102561.41;;;6.79;100.00
57990;BME280;58373;51.824;5.564;2024-01-30T00:10:53;102570.03;;;6.78;100.00
57990;BME280;58373;51.824;5.564;2024-01-30T00:13:18;102566.66;;;6.76;100.00
57990;BME280;58373;51.824;5.564;2024-01-30T00:15:44;102562.41;;;6.75;100.00
57990;BME280;58373;51.824;5.564;2024-01-30T00:18:10;102565.88;;;6.74;100.00
57990;BME280;58373;51.824;5.564;2024-01-30T00:20:35;102560.72;;;6.74;100.00
57990;BME280;58373;51.824;5.564;2024-01-30T00:23:00;102561.69;;;6.72;100.00
57990;BME280;58373;51.824;5.564;2024-01-30T00:25:26;102564.31;;;6.70;100.00
57990;BME280;58373;51.824;5.564;2024-01-30T00:27:51;102560.97;;;6.68;100.00
57990;BME280;58373;51.824;5.564;2024-01-30T00:30:16;102558.44;;;6.67;100.00
57990;BME280;58373;51.824;5.564;2024-01-30T00:32:42;102555.13;;;6.63;100.00
57990;BME280;58373;51.824;5.564;2024-01-30T00:35:07;102560.41;;;6.60;100.00
57990;BME280;58373;51.824;5.564;2024-01-30T00:37:34;102552.78;;;6.57;100.00
57990;BME280;58373;51.824;5.564;2024-01-30T00:39:59;102551.09;;;6.56;100.00
57990;BME280;58373;51.824;5.564;2024-01-30T00:42:25;102552.91;;;6.54;100.00
57990;BME280;58373;51.824;5.564;2024-01-30T00:44:50;102547.75;;;6.54;100.00
57990;BME280;58373;51.824;5.564;2024-01-30T00:47:15;102552.19;;;6.50;100.00
57990;BME280;58373;51.824;5.564;2024-01-30T00:49:40;102552.25;;;6.49;100.00
57990;BME280;58373;51.824;5.564;2024-01-30T00:52:06;102548.09;;;6.45;100.00
57990;BME280;58373;51.824;5.564;2024-01-30T00:54:31;102546.50;;;6.41;100.00
57990;BME280;58373;51.824;5.564;2024-01-30T00:56:56;102544.06;;;6.37;100.00
57990;BME280;58373;51.824;5.564;2024-01-30T00:59:21;102536.44;;;6.34;100.00
57990;BME280;58373;51.824;5.564;2024-01-30T01:01:47;102541.81;;;6.28;100.00
57990;BME280;58373;51.824;5.564;2024-01-30T01:04:12;102536.78;;;6.25;100.00
57990;BME280;58373;51.824;5.564;2024-01-30T01:06:37;102535.97;;;6.23;100.00
57990;BME280;58373;51.824;5.564;2024-01-30T01:09:02;102540.34;;;6.21;100.00
57990;BME280;58373;51.824;5.564;2024-01-30T01:11:28;102530.09;;;6.20;100.00
57990;BME280;58373;51.824;5.564;2024-01-30T01:13:53;102531.09;;;6.16;100.00
57990;BME280;58373;51.824;5.564;2024-01-30T01:16:19;102538.91;;;6.14;100.00
57990;BME280;58373;51.824;5.564;2024-01-30T01:18:44;102532.16;;;6.10;100.00
57990;BME280;58373;51.824;5.564;2024-01-30T01:21:09;102535.63;;;6.09;100.00
57990;BME280;58373;51.824;5.564;2024-01-30T01:23:34;102528.81;;;6.08;100.00
57990;BME280;58373;51.824;5.564;2024-01-30T01:25:59;102532.25;;;6.07;100.00
57990;BME280;58373;51.824;5.564;2024-01-30T01:28:25;102525.44;;;6.06;100.00
57990;BME280;58373;51.824;5.564;2024-01-30T01:30:51;102527.22;;;6.04;100.00
57990;BME280;58373;51.824;5.564;2024-01-30T01:33:16;102519.50;;;6.04;100.00
57990;BME280;58373;51.824;5.564;2024-01-30T01:35:42;102529.88;;;6.02;100.00
57990;BME280;58373;51.824;5.564;2024-01-30T01:38:07;102525.66;;;6.00;100.00
57990;BME280;58373;51.824;5.564;2024-01-30T01:40:32;102519.66;;;5.99;100.00
57990;BME280;58373;51.824;5.564;2024-01-30T01:42:58;102516.25;;;5.99;100.00
57990;BME280;58373;51.824;5.564;2024-01-30T01:45:23;102515.41;;;5.98;100.00
57990;BME280;58373;51.824;5.564;2024-01-30T01:47:50;102509.41;;;5.98;100.00
57990;BME280;58373;51.824;5.564;2024-01-30T01:50:15;102518.91;;;5.96;100.00
57990;BME280;58373;51.824;5.564;2024-01-30T01:52:44;102507.78;;;5.95;100.00
57990;BME280;58373;51.824;5.564;2024-01-30T01:55:11;102507.84;;;5.94;100.00
57990;BME280;58373;51.824;5.564;2024-01-30T01:57:37;102516.47;;;5.93;100.00
57990;BME280;58373;51.824;5.564;2024-01-30T02:00:02;102514.72;;;5.93;100.00
57990;BME280;58373;51.824;5.564;2024-01-30T02:02:30;102505.44;;;5.88;100.00
57990;BME280;58373;51.824;5.564;2024-01-30T02:04:55;102507.91;;;5.91;100.00
57990;BME280;58373;51.824;5.564;2024-01-30T02:07:21;102513.16;;;5.88;100.00
57990;BME280;58373;51.824;5.564;2024-01-30T02:09:46;102517.53;;;5.85;100.00
57990;BME280;58373;51.824;5.564;2024-01-30T02:12:12;102512.41;;;5.85;100.00
57990;BME280;58373;51.824;5.564;2024-01-30T02:14:44;102496.94;;;5.85;100.00
57990;BME280;58373;51.824;5.564;2024-01-30T02:17:09;102488.41;;;5.83;100.00
57990;BME280;58373;51.824;5.564;2024-01-30T02:19:34;102498.84;;;5.80;100.00
57990;BME280;58373;51.824;5.564;2024-01-30T02:21:59;102490.38;;;5.77;100.00
57990;BME280;58373;51.824;5.564;2024-01-30T02:24:24;102489.59;;;5.75;100.00
57990;BME280;58373;51.824;5.564;2024-01-30T02:26:50;102492.25;;;5.72;100.00
57990;BME280;58373;51.824;5.564;2024-01-30T02:29:15;102487.16;;;5.70;100.00
57990;BME280;58373;51.824;5.564;2024-01-30T02:31:40;102488.91;;;5.70;100.00
57990;BME280;58373;51.824;5.564;2024-01-30T02:34:05;102495.78;;;5.69;100.00
57990;BME280;58373;51.824;5.564;2024-01-30T02:36:30;102495.72;;;5.71;100.00
57990;BME280;58373;51.824;5.564;2024-01-30T02:38:55;102492.19;;;5.73;100.00
57990;BME280;58373;51.824;5.564;2024-01-30T02:41:21;102499.88;;;5.75;100.00
57990;BME280;58373;51.824;5.564;2024-01-30T02:43:46;102498.09;;;5.77;100.00
57990;BME280;58373;51.824;5.564;2024-01-30T02:46:12;102497.16;;;5.79;100.00
57990;BME280;58373;51.824;5.564;2024-01-30T02:48:37;102498.00;;;5.80;100.00
57990;BME280;58373;51.824;5.564;2024-01-30T02:51:04;102492.78;;;5.81;100.00
57990;BME280;58373;51.824;5.564;2024-01-30T02:53:29;102497.03;;;5.82;100.00
57990;BME280;58373;51.824;5.564;2024-01-30T02:55:54;102482.50;;;5.81;100.00
57990;BME280;58373;51.824;5.564;2024-01-30T02:58:19;102480.69;;;5.83;100.00
57990;BME280;58373;51.824;5.564;2024-01-30T03:00:44;102475.53;;;5.83;100.00
57990;BME280;58373;51.824;5.564;2024-01-30T03:03:10;102472.97;;;5.83;100.00
57990;BME280;58373;51.824;5.564;2024-01-30T03:05:35;102464.47;;;5.81;100.00
57990;BME280;58373;51.824;5.564;2024-01-30T03:08:00;102463.56;;;5.82;100.00
57990;BME280;58373;51.824;5.564;2024-01-30T03:10:25;102459.31;;;5.81;100.00
57990;BME280;58373;51.824;5.564;2024-01-30T03:12:51;102463.56;;;5.82;100.00
57990;BME280;58373;51.824;5.564;2024-01-30T03:15:16;102455.84;;;5.82;100.00
57990;BME280;58373;51.824;5.564;2024-01-30T03:17:41;102454.16;;;5.81;100.00
57990;BME280;58373;51.824;5.564;2024-01-30T03:20:07;102453.41;;;5.78;100.00
57990;BME280;58373;51.824;5.564;2024-01-30T03:22:32;102452.50;;;5.80;100.00
57990;BME280;58373;51.824;5.564;2024-01-30T03:24:57;102453.31;;;5.81;100.00
57990;BME280;58373;51.824;5.564;2024-01-30T03:27:23;102443.03;;;5.81;100.00
57990;BME280;58373;51.824;5.564;2024-01-30T03:29:48;102445.53;;;5.82;100.00
57990;BME280;58373;51.824;5.564;2024-01-30T03:32:13;102433.56;;;5.81;100.00
57990;BME280;58373;51.824;5.564;2024-01-30T03:34:38;102444.63;;;5.83;100.00
57990;BME280;58373;51.824;5.564;2024-01-30T03:37:04;102428.28;;;5.84;100.00
57990;BME280;58373;51.824;5.564;2024-01-30T03:39:30;102431.66;;;5.86;100.00
57990;BME280;58373;51.824;5.564;2024-01-30T03:41:55;102434.25;;;5.86;100.00
57990;BME280;58373;51.824;5.564;2024-01-30T03:44:21;102441.97;;;5.86;100.00
57990;BME280;58373;51.824;5.564;2024-01-30T03:46:46;102450.47;;;5.89;100.00
57990;BME280;58373;51.824;5.564;2024-01-30T03:49:11;102434.13;;;5.90;100.00
57990;BME280;58373;51.824;5.564;2024-01-30T03:51:36;102445.25;;;5.92;100.00
57990;BME280;58373;51.824;5.564;2024-01-30T03:54:01;102443.44;;;5.94;100.00
57990;BME280;58373;51.824;5.564;2024-01-30T03:56:27;102442.56;;;5.95;100.00
57990;BME280;58373;51.824;5.564;2024-01-30T03:58:52;102445.13;;;5.95;100.00
57990;BME280;58373;51.824;5.564;2024-01-30T04:01:17;102447.69;;;5.95;100.00
57990;BME280;58373;51.824;5.564;2024-01-30T04:03:42;102459.69;;;5.96;100.00
57990;BME280;58373;51.824;5.564;2024-01-30T04:06:08;102458.81;;;5.97;100.00
57990;BME280;58373;51.824;5.564;2024-01-30T04:08:34;102453.66;;;5.97;100.00
57990;BME280;58373;51.824;5.564;2024-01-30T04:11:02;102453.59;;;5.98;100.00
57990;BME280;58373;51.824;5.564;2024-01-30T04:13:28;102459.50;;;6.00;100.00
57990;BME280;58373;51.824;5.564;2024-01-30T04:15:53;102447.47;;;6.01;100.00
57990;BME280;58373;51.824;5.564;2024-01-30T04:18:20;102445.72;;;6.03;100.00
57990;BME280;58373;51.824;5.564;2024-01-30T04:20:45;102448.16;;;6.06;100.00
57990;BME280;58373;51.824;5.564;2024-01-30T04:23:10;102437.84;;;6.06;100.00
57990;BME280;58373;51.824;5.564;2024-01-30T04:25:35;102443.00;;;6.06;100.00
57990;BME280;58373;51.824;5.564;2024-01-30T04:28:01;102444.69;;;6.07;100.00
57990;BME280;58373;51.824;5.564;2024-01-30T04:30:26;102441.22;;;6.08;100.00
57990;BME280;58373;51.824;5.564;2024-01-30T04:32:51;102440.31;;;6.09;100.00
57990;BME280;58373;51.824;5.564;2024-01-30T04:35:16;102434.28;;;6.10;100.00
57990;BME280;58373;51.824;5.564;2024-01-30T04:37:41;102430.78;;;6.11;100.00
57990;BME280;58373;51.824;5.564;2024-01-30T04:40:07;102437.63;;;6.12;100.00
57990;BME280;58373;51.824;5.564;2024-01-30T04:42:32;102423.06;;;6.11;100.00
57990;BME280;58373;51.824;5.564;2024-01-30T04:44:57;102425.66;;;6.11;100.00
57990;BME280;58373;51.824;5.564;2024-01-30T04:47:22;102422.16;;;6.12;100.00
57990;BME280;58373;51.824;5.564;2024-01-30T04:49:47;102418.69;;;6.13;100.00
57990;BME280;58373;51.824;5.564;2024-01-30T04:52:12;102417.00;;;6.12;100.00
57990;BME280;58373;51.824;5.564;2024-01-30T04:54:38;102419.59;;;6.12;100.00
57990;BME280;58373;51.824;5.564;2024-01-30T04:57:03;102417.84;;;6.12;100.00
57990;BME280;58373;51.824;5.564;2024-01-30T04:59:28;102426.41;;;6.13;100.00
57990;BME280;58373;51.824;5.564;2024-01-30T05:01:53;102411.75;;;6.15;100.00
57990;BME280;58373;51.824;5.564;2024-01-30T05:04:19;102420.31;;;6.16;100.00
57990;BME280;58373;51.824;5.564;2024-01-30T05:06:44;102412.66;;;6.14;100.00
57990;BME280;58373;51.824;5.564;2024-01-30T05:09:09;102419.50;;;6.15;100.00
57990;BME280;58373;51.824;5.564;2024-01-30T05:11:38;102428.06;;;6.16;100.00
57990;BME280;58373;51.824;5.564;2024-01-30T05:14:03;102420.25;;;6.17;100.00
57990;BME280;58373;51.824;5.564;2024-01-30T05:16:29;102421.94;;;6.18;100.00
57990;BME280;58373;51.824;5.564;2024-01-30T05:18:54;102425.31;;;6.20;100.00
57990;BME280;58373;51.824;5.564;2024-01-30T05:21:19;102414.09;;;6.21;100.00
57990;BME280;58373;51.824;5.564;2024-01-30T05:23:44;102421.84;;;6.21;100.00
57990;BME280;58373;51.824;5.564;2024-01-30T05:26:09;102420.16;;;6.20;100.00
57990;BME280;58373;51.824;5.564;2024-01-30T05:28:35;102406.38;;;6.21;100.00
57990;BME280;58373;51.824;5.564;2024-01-30T05:31:00;102413.19;;;6.22;100.00
57990;BME280;58373;51.824;5.564;2024-01-30T05:33:25;102414.03;;;6.23;100.00
57990;BME280;58373;51.824;5.564;2024-01-30T05:35:50;102411.41;;;6.24;100.00
57990;BME280;58373;51.824;5.564;2024-01-30T05:38:19;102406.25;;;6.24;100.00
57990;BME280;58373;51.824;5.564;2024-01-30T05:40:44;102404.47;;;6.26;100.00
57990;BME280;58373;51.824;5.564;2024-01-30T05:43:09;102411.28;;;6.27;100.00
57990;BME280;58373;51.824;5.564;2024-01-30T05:45:34;102418.13;;;6.28;100.00
57990;BME280;58373;51.824;5.564;2024-01-30T05:48:00;102418.13;;;6.28;100.00
57990;BME280;58373;51.824;5.564;2024-01-30T05:50:26;102429.25;;;6.29;100.00
57990;BME280;58373;51.824;5.564;2024-01-30T05:52:51;102416.31;;;6.30;100.00
57990;BME280;58373;51.824;5.564;2024-01-30T05:55:17;102425.69;;;6.33;100.00
57990;BME280;58373;51.824;5.564;2024-01-30T05:57:42;102418.78;;;6.33;100.00
57990;BME280;58373;51.824;5.564;2024-01-30T06:00:07;102407.56;;;6.34;100.00
57990;BME280;58373;51.824;5.564;2024-01-30T06:02:33;102417.88;;;6.34;100.00
57990;BME280;58373;51.824;5.564;2024-01-30T06:04:59;102411.81;;;6.35;100.00
57990;BME280;58373;51.824;5.564;2024-01-30T06:07:24;102416.94;;;6.37;100.00
57990;BME280;58373;51.824;5.564;2024-01-30T06:09:49;102419.47;;;6.38;100.00
57990;BME280;58373;51.824;5.564;2024-01-30T06:12:14;102415.97;;;6.39;100.00
57990;BME280;58373;51.824;5.564;2024-01-30T06:14:40;102421.13;;;6.39;100.00
57990;BME280;58373;51.824;5.564;2024-01-30T06:17:07;102421.13;;;6.39;100.00
57990;BME280;58373;51.824;5.564;2024-01-30T06:19:32;102424.47;;;6.42;100.00
57990;BME280;58373;51.824;5.564;2024-01-30T06:21:57;102423.59;;;6.43;100.00
57990;BME280;58373;51.824;5.564;2024-01-30T06:24:22;102427.84;;;6.44;100.00
57990;BME280;58373;51.824;5.564;2024-01-30T06:26:47;102431.19;;;6.46;100.00
57990;BME280;58373;51.824;5.564;2024-01-30T06:29:13;102439.69;;;6.48;100.00
57990;BME280;58373;51.824;5.564;2024-01-30T06:31:40;102441.41;;;6.49;100.00
57990;BME280;58373;51.824;5.564;2024-01-30T06:34:06;102425.94;;;6.49;100.00
57990;BME280;58373;51.824;5.564;2024-01-30T06:36:31;102418.97;;;6.51;100.00
57990;BME280;58373;51.824;5.564;2024-01-30T06:38:57;102419.81;;;6.51;100.00
57990;BME280;58373;51.824;5.564;2024-01-30T06:41:22;102424.91;;;6.53;100.00
57990;BME280;58373;51.824;5.564;2024-01-30T06:43:47;102424.03;;;6.54;100.00
57990;BME280;58373;51.824;5.564;2024-01-30T06:46:12;102436.91;;;6.54;100.00
57990;BME280;58373;51.824;5.564;2024-01-30T06:48:38;102434.34;;;6.54;100.00
57990;BME280;58373;51.824;5.564;2024-01-30T06:51:05;102434.28;;;6.55;100.00
57990;BME280;58373;51.824;5.564;2024-01-30T06:53:30;102437.69;;;6.56;100.00
57990;BME280;58373;51.824;5.564;2024-01-30T06:55:55;102441.03;;;6.58;100.00
57990;BME280;58373;51.824;5.564;2024-01-30T06:58:20;102435.88;;;6.58;100.00
57990;BME280;58373;51.824;5.564;2024-01-30T07:00:45;102439.28;;;6.58;100.00
57990;BME280;58373;51.824;5.564;2024-01-30T07:03:11;102449.56;;;6.60;100.00
57990;BME280;58373;51.824;5.564;2024-01-30T07:05:36;102449.56;;;6.60;100.00
57990;BME280;58373;51.824;5.564;2024-01-30T07:08:01;102452.91;;;6.62;100.00
57990;BME280;58373;51.824;5.564;2024-01-30T07:10:26;102458.06;;;6.62;100.00
57990;BME280;58373;51.824;5.564;2024-01-30T07:12:51;102454.59;;;6.63;100.00
57990;BME280;58373;51.824;5.564;2024-01-30T07:15:17;102452.78;;;6.65;100.00
57990;BME280;58373;51.824;5.564;2024-01-30T07:17:45;102448.34;;;6.69;100.00
57990;BME280;58373;51.824;5.564;2024-01-30T07:20:10;102461.19;;;6.70;100.00
57990;BME280;58373;51.824;5.564;2024-01-30T07:22:36;102465.38;;;6.73;100.00
57990;BME280;58373;51.824;5.564;2024-01-30T07:25:01;102469.53;;;6.77;100.00
57990;BME280;58373;51.824;5.564;2024-01-30T07:27:26;102468.50;;;6.81;100.00
57990;BME280;58373;51.824;5.564;2024-01-30T07:29:51;102454.59;;;6.85;100.00
57990;BME280;58373;51.824;5.564;2024-01-30T07:32:17;102459.56;;;6.89;100.00
57990;BME280;58373;51.824;5.564;2024-01-30T07:34:42;102458.59;;;6.92;100.00
57990;BME280;58373;51.824;5.564;2024-01-30T07:37:07;102463.56;;;6.97;100.00
57990;BME280;58373;51.824;5.564;2024-01-30T07:39:33;102475.44;;;7.01;100.00
57990;BME280;58373;51.824;5.564;2024-01-30T07:41:58;102475.31;;;7.04;100.00
57990;BME280;58373;51.824;5.564;2024-01-30T07:44:24;102481.19;;;7.07;100.00
57990;BME280;58373;51.824;5.564;2024-01-30T07:46:49;102483.59;;;7.12;100.00
57990;BME280;58373;51.824;5.564;2024-01-30T07:49:15;102485.13;;;7.16;100.00
57990;BME280;58373;51.824;5.564;2024-01-30T07:51:40;102481.59;;;7.18;100.00
57990;BME280;58373;51.824;5.564;2024-01-30T07:54:05;102484.88;;;7.22;100.00
57990;BME280;58373;51.824;5.564;2024-01-30T07:56:30;102483.09;;;7.24;100.00
57990;BME280;58373;51.824;5.564;2024-01-30T07:58:55;102480.38;;;7.27;100.00
57990;BME280;58373;51.824;5.564;2024-01-30T08:01:20;102488.00;;;7.30;100.00
57990;BME280;58373;51.824;5.564;2024-01-30T08:03:46;102487.88;;;7.33;100.00
57990;BME280;58373;51.824;5.564;2024-01-30T08:06:11;102487.75;;;7.36;100.00
57990;BME280;58373;51.824;5.564;2024-01-30T08:08:36;102500.47;;;7.41;100.00
57990;BME280;58373;51.824;5.564;2024-01-30T08:11:02;102490.84;;;7.44;100.00
57990;BME280;58373;51.824;5.564;2024-01-30T08:13:28;102496.00;;;7.44;100.00
57990;BME280;58373;51.824;5.564;2024-01-30T08:15:53;102498.47;;;7.48;100.00
57990;BME280;58373;51.824;5.564;2024-01-30T08:18:18;102500.06;;;7.50;100.00
57990;BME280;58373;51.824;5.564;2024-01-30T08:20:43;102493.97;;;7.53;100.00
57990;BME280;58373;51.824;5.564;2024-01-30T08:23:09;102501.56;;;7.56;100.00
57990;BME280;58373;51.824;5.564;2024-01-30T08:25:35;102502.28;;;7.59;100.00
57990;BME280;58373;51.824;5.564;2024-01-30T08:28:01;102507.38;;;7.61;100.00
57990;BME280;58373;51.824;5.564;2024-01-30T08:30:26;102507.25;;;7.64;100.00
57990;BME280;58373;51.824;5.564;2024-01-30T08:32:51;102497.63;;;7.67;100.00
57990;BME280;58373;51.824;5.564;2024-01-30T08:35:17;102498.44;;;7.68;100.00
57990;BME280;58373;51.824;5.564;2024-01-30T08:37:42;102501.00;;;7.69;100.00
57990;BME280;58373;51.824;5.564;2024-01-30T08:40:07;102503.44;;;7.72;100.00
57990;BME280;58373;51.824;5.564;2024-01-30T08:42:35;102496.41;;;7.76;100.00
57990;BME280;58373;51.824;5.564;2024-01-30T08:45:01;102498.91;;;7.78;100.00
57990;BME280;58373;51.824;5.564;2024-01-30T08:47:26;102492.78;;;7.80;100.00
57990;BME280;58373;51.824;5.564;2024-01-30T08:49:51;102489.22;;;7.83;100.00
57990;BME280;58373;51.824;5.564;2024-01-30T08:52:17;102487.34;;;7.86;100.00
57990;BME280;58373;51.824;5.564;2024-01-30T08:54:42;102495.88;;;7.88;100.00
57990;BME280;58373;51.824;5.564;2024-01-30T08:57:07;102502.59;;;7.92;100.00
57990;BME280;58373;51.824;5.564;2024-01-30T08:59:32;102498.94;;;7.96;100.00
57990;BME280;58373;51.824;5.564;2024-01-30T09:01:58;102501.25;;;8.03;100.00
57990;BME280;58373;51.824;5.564;2024-01-30T09:04:24;102495.88;;;8.07;100.00
57990;BME280;58373;51.824;5.564;2024-01-30T09:06:49;102501.13;;;8.06;100.00
57990;BME280;58373;51.824;5.564;2024-01-30T09:09:15;102502.69;;;8.10;100.00
57990;BME280;58373;51.824;5.564;2024-01-30T09:11:43;102502.59;;;8.11;100.00
57990;BME280;58373;51.824;5.564;2024-01-30T09:14:08;102505.06;;;8.14;100.00
57990;BME280;58373;51.824;5.564;2024-01-30T09:16:34;102507.41;;;8.19;100.00
57990;BME280;58373;51.824;5.564;2024-01-30T09:18:59;102520.22;;;8.22;100.00
57990;BME280;58373;51.824;5.564;2024-01-30T09:21:24;102518.00;;;8.33;100.00
57990;BME280;58373;51.824;5.564;2024-01-30T09:23:49;102523.28;;;8.30;100.00
57990;BME280;58373;51.824;5.564;2024-01-30T09:26:14;102523.16;;;8.33;100.00
57990;BME280;58373;51.824;5.564;2024-01-30T09:28:39;102523.16;;;8.33;100.00
57990;BME280;58373;51.824;5.564;2024-01-30T09:31:10;102522.34;;;8.33;100.00
57990;BME280;58373;51.824;5.564;2024-01-30T09:33:38;102524.00;;;8.34;100.00
57990;BME280;58373;51.824;5.564;2024-01-30T09:36:05;102526.50;;;8.35;100.00
57990;BME280;58373;51.824;5.564;2024-01-30T09:38:30;102529.91;;;8.37;100.00
57990;BME280;58373;51.824;5.564;2024-01-30T09:40:55;102533.91;;;8.44;100.00
57990;BME280;58373;51.824;5.564;2024-01-30T09:43:22;102538.16;;;8.45;100.00
57990;BME280;58373;51.824;5.564;2024-01-30T09:45:48;102538.00;;;8.48;100.00
57990;BME280;58373;51.824;5.564;2024-01-30T09:48:13;102536.88;;;8.54;100.00
57990;BME280;58373;51.824;5.564;2024-01-30T09:50:40;102547.81;;;8.61;100.00
57990;BME280;58373;51.824;5.564;2024-01-30T09:53:06;102532.00;;;8.67;100.00
57990;BME280;58373;51.824;5.564;2024-01-30T09:55:32;102536.91;;;8.73;100.00
57990;BME280;58373;51.824;5.564;2024-01-30T09:57:58;102540.25;;;8.75;100.00
57990;BME280;58373;51.824;5.564;2024-01-30T10:00:24;102536.16;;;8.88;100.00
57990;BME280;58373;51.824;5.564;2024-01-30T10:02:52;102537.56;;;8.95;100.00
57990;BME280;58373;51.824;5.564;2024-01-30T10:05:17;102532.72;;;9.07;100.00
57990;BME280;58373;51.824;5.564;2024-01-30T10:07:52;102538.25;;;8.99;100.00
57990;BME280;58373;51.824;5.564;2024-01-30T10:10:17;102545.66;;;9.07;100.00
57990;BME280;58373;51.824;5.564;2024-01-30T10:12:43;102549.00;;;9.09;100.00
57990;BME280;58373;51.824;5.564;2024-01-30T10:15:08;102550.69;;;9.10;100.00
57990;BME280;58373;51.824;5.564;2024-01-30T10:17:33;102552.22;;;9.14;100.00
57990;BME280;58373;51.824;5.564;2024-01-30T10:20:04;102553.91;;;9.15;100.00
57990;BME280;58373;51.824;5.564;2024-01-30T10:22:29;102554.44;;;9.21;100.00
57990;BME280;58373;51.824;5.564;2024-01-30T10:24:54;102550.38;;;9.16;100.00
57990;BME280;58373;51.824;5.564;2024-01-30T10:27:24;102557.25;;;9.17;100.00
57990;BME280;58373;51.824;5.564;2024-01-30T10:29:49;102550.25;;;9.19;100.00
57990;BME280;58373;51.824;5.564;2024-01-30T10:32:14;102545.22;;;9.16;100.00
57990;BME280;58373;51.824;5.564;2024-01-30T10:34:40;102545.91;;;9.19;100.00
57990;BME280;58373;51.824;5.564;2024-01-30T10:37:09;102547.44;;;9.23;100.00
57990;BME280;58373;51.824;5.564;2024-01-30T10:39:38;102548.28;;;9.24;100.00
57990;BME280;58373;51.824;5.564;2024-01-30T10:42:04;102550.63;;;9.28;100.00
57990;BME280;58373;51.824;5.564;2024-01-30T10:44:30;102539.31;;;9.31;100.00
57990;BME280;58373;51.824;5.564;2024-01-30T10:47:00;102540.06;;;9.33;100.00
57990;BME280;58373;51.824;5.564;2024-01-30T10:49:30;102547.38;;;9.42;100.00
57990;BME280;58373;51.824;5.564;2024-01-30T10:51:59;102547.22;;;9.45;100.00
57990;BME280;58373;51.824;5.564;2024-01-30T10:54:24;102550.59;;;9.47;100.00
57990;BME280;58373;51.824;5.564;2024-01-30T10:56:50;102552.72;;;9.56;100.00
57990;BME280;58373;51.824;5.564;2024-01-30T10:59:15;102555.81;;;9.63;100.00
57990;BME280;58373;51.824;5.564;2024-01-30T11:01:41;102551.25;;;9.68;100.00
57990;BME280;58373;51.824;5.564;2024-01-30T11:04:06;102557.34;;;9.84;100.00
57990;BME280;58373;51.824;5.564;2024-01-30T11:06:32;102557.56;;;9.80;100.00
57990;BME280;58373;51.824;5.564;2024-01-30T11:09:05;102559.59;;;9.75;100.00
57990;BME280;58373;51.824;5.564;2024-01-30T11:11:48;102544.88;;;9.75;100.00
57990;BME280;58373;51.824;5.564;2024-01-30T11:14:13;102551.63;;;9.78;100.00
57990;BME280;58373;51.824;5.564;2024-01-30T11:16:39;102553.31;;;9.79;100.00
57990;BME280;58373;51.824;5.564;2024-01-30T11:19:05;102562.16;;;9.92;100.00
57990;BME280;58373;51.824;5.564;2024-01-30T11:21:40;102561.09;;;9.79;100.00
57990;BME280;58373;51.824;5.564;2024-01-30T11:24:05;102562.00;;;9.78;100.00
57990;BME280;58373;51.824;5.564;2024-01-30T11:26:31;102561.09;;;9.79;100.00
57990;BME280;58373;51.824;5.564;2024-01-30T11:28:56;102555.75;;;9.82;100.00
57990;BME280;58373;51.824;5.564;2024-01-30T11:31:21;102560.16;;;9.80;100.00
57990;BME280;58373;51.824;5.564;2024-01-30T11:33:47;102551.56;;;9.79;100.00
57990;BME280;58373;51.824;5.564;2024-01-30T11:36:17;102553.91;;;9.84;100.00
57990;BME280;58373;51.824;5.564;2024-01-30T11:38:44;102553.00;;;9.85;100.00
57990;BME280;58373;51.824;5.564;2024-01-30T11:41:11;102552.63;;;9.93;100.00
57990;BME280;58373;51.824;5.564;2024-01-30T11:43:37;102556.81;;;9.95;100.00
57990;BME280;58373;51.824;5.564;2024-01-30T11:46:05;102542.13;;;10.11;100.00
57990;BME280;58373;51.824;5.564;2024-01-30T11:48:30;102548.09;;;9.96;100.00
57990;BME280;58373;51.824;5.564;2024-01-30T11:50:55;102546.28;;;9.98;100.00
57990;BME280;58373;51.824;5.564;2024-01-30T11:53:21;102546.13;;;10.01;100.00
57990;BME280;58373;51.824;5.564;2024-01-30T11:55:49;102558.31;;;9.99;100.00
57990;BME280;58373;51.824;5.564;2024-01-30T11:58:15;102557.41;;;10.00;100.00
57990;BME280;58373;51.824;5.564;2024-01-30T12:00:40;102569.22;;;10.06;100.00
57990;BME280;58373;51.824;5.564;2024-01-30T12:03:05;102563.03;;;10.08;100.00
57990;BME280;58373;51.824;5.564;2024-01-30T12:05:31;102555.22;;;10.26;100.00
57990;BME280;58373;51.824;5.564;2024-01-30T12:07:57;102572.78;;;10.21;100.00
57990;BME280;58373;51.824;5.564;2024-01-30T12:10:25;102576.28;;;10.20;100.00
57990;BME280;58373;51.824;5.564;2024-01-30T12:12:50;102576.13;;;10.23;99.73
57990;BME280;58373;51.824;5.564;2024-01-30T12:15:16;102571.81;;;10.23;98.73
57990;BME280;58373;51.824;5.564;2024-01-30T12:17:42;102572.31;;;10.13;97.00
57990;BME280;58373;51.824;5.564;2024-01-30T12:20:08;102569.03;;;10.09;97.23
57990;BME280;58373;51.824;5.564;2024-01-30T12:22:37;102570.50;;;9.97;96.88
57990;BME280;58373;51.824;5.564;2024-01-30T12:25:07;102578.91;;;10.02;94.76
57990;BME280;58373;51.824;5.564;2024-01-30T12:27:33;102594.16;;;9.91;96.78
57990;BME280;58373;51.824;5.564;2024-01-30T12:29:58;102595.06;;;9.90;98.29
57990;BME280;58373;51.824;5.564;2024-01-30T12:32:23;102587.44;;;10.04;98.21
57990;BME280;58373;51.824;5.564;2024-01-30T12:34:49;102610.31;;;9.96;99.58
57990;BME280;58373;51.824;5.564;2024-01-30T12:37:14;102604.97;;;10.17;97.00
57990;BME280;58373;51.824;5.564;2024-01-30T12:39:42;102614.13;;;9.89;99.44
57990;BME280;58373;51.824;5.564;2024-01-30T12:42:08;102610.78;;;9.87;98.90